createdAt,value
2018-07-28T08:28:42.618Z,26.04
2018-07-28T09:20:34.238Z,33.70
2018-07-28T09:21:31.718Z,32.93
2018-07-28T09:22:31.826Z,32.25
2018-07-28T09:23:31.711Z,31.57
2018-07-28T09:24:31.662Z,31.50
2018-07-28T09:25:31.754Z,31.38
2018-07-28T09:26:32.352Z,31.10
2018-07-28T09:27:31.801Z,30.76
2018-07-28T09:28:31.715Z,30.26
2018-07-28T09:29:36.255Z,31.16
2018-07-28T09:30:31.896Z,31.30
2018-07-28T09:31:31.859Z,31.97
2018-07-28T09:32:34.164Z,32.87
2018-07-28T09:35:25.596Z,32.99
2018-07-28T09:36:27.162Z,32.32
2018-07-28T09:37:27.365Z,32.56
2018-07-28T09:38:25.426Z,32.41
2018-07-28T09:39:28.384Z,31.87
2018-07-28T09:40:27.248Z,31.91
2018-07-28T09:41:28.243Z,31.50
2018-07-28T09:42:27.188Z,31.64
2018-07-28T09:43:27.142Z,31.62
2018-07-28T09:44:27.035Z,31.56
2018-07-28T09:45:27.065Z,31.53
2018-07-28T09:46:27.032Z,31.42
2018-07-28T09:47:26.996Z,32.13
2018-07-28T09:48:27.149Z,32.46
2018-07-28T09:49:25.732Z,32.39
2018-07-28T09:50:27.261Z,31.98
2018-07-28T09:51:27.661Z,31.88
2018-07-28T09:52:25.799Z,31.84
2018-07-28T09:54:15.730Z,31.69
2018-07-28T09:55:39.868Z,31.28
2018-07-28T09:56:16.806Z,30.73
2018-07-28T09:57:16.903Z,30.53
2018-07-28T09:58:16.930Z,30.06
2018-07-28T09:59:17.643Z,29.82
2018-07-28T10:00:18.150Z,29.58
2018-07-28T10:01:18.935Z,29.57
2018-07-28T10:02:51.539Z,29.48
2018-07-28T10:03:16.834Z,29.32
2018-07-28T10:04:18.476Z,28.87
2018-07-28T10:05:16.869Z,28.74
2018-07-28T10:06:16.606Z,28.54
2018-07-28T10:07:16.575Z,28.43
2018-07-28T10:08:16.603Z,28.50
2018-07-28T10:09:16.630Z,28.28
2018-07-28T10:10:16.570Z,28.33
2018-07-28T10:11:16.676Z,28.38
2018-07-28T10:12:17.544Z,28.36
2018-07-28T10:13:16.513Z,28.48
2018-07-28T10:14:16.520Z,28.40
2018-07-28T10:15:17.569Z,28.27
2018-07-28T10:16:17.081Z,28.06
2018-07-28T10:17:16.574Z,28.11
2018-07-28T10:18:14.921Z,28.01
2018-07-28T10:19:16.645Z,27.88
2018-07-28T10:20:16.595Z,27.90
2018-07-28T10:21:17.600Z,27.84
2018-07-28T10:22:16.842Z,27.87
2018-07-28T10:23:17.614Z,27.83
2018-07-28T10:24:14.846Z,27.84
2018-07-28T10:25:17.618Z,28.06
2018-07-28T10:26:16.841Z,28.36
2018-07-28T10:27:16.663Z,29.47
2018-07-28T10:28:16.744Z,30.00
2018-07-28T10:29:16.629Z,30.75
2018-07-28T10:30:16.906Z,30.81
2018-07-28T10:31:16.677Z,30.60
2018-07-28T10:32:16.710Z,30.38
2018-07-28T10:33:16.572Z,30.11
2018-07-28T10:34:16.903Z,29.97
2018-07-28T10:35:16.593Z,29.66
2018-07-28T10:36:16.853Z,29.42
2018-07-28T10:37:16.731Z,29.51
2018-07-28T10:38:15.710Z,29.79
2018-07-28T10:39:16.152Z,29.78
2018-07-28T10:40:16.108Z,30.01
2018-07-28T10:41:16.225Z,30.01
2018-07-28T10:42:16.162Z,30.04
2018-07-28T10:43:14.581Z,30.78
2018-07-28T10:44:16.559Z,30.38
2018-07-28T10:45:17.072Z,30.03
2018-07-28T10:46:15.539Z,29.85
2018-07-28T10:47:17.147Z,29.78
2018-07-28T10:48:17.022Z,29.74
2018-07-28T10:49:15.459Z,29.63
2018-07-28T10:50:16.124Z,29.63
2018-07-28T10:51:16.063Z,30.01
2018-07-28T10:52:16.005Z,30.10
2018-07-28T10:53:16.008Z,30.26
2018-07-28T10:54:17.007Z,30.25
2018-07-28T10:55:22.176Z,30.30
2018-07-28T10:56:16.248Z,30.13
2018-07-28T10:57:16.250Z,30.15
2018-07-28T10:58:16.627Z,30.67
2018-07-28T10:59:15.050Z,31.27
2018-07-28T11:00:17.059Z,32.31
2018-07-28T11:01:16.043Z,32.39
2018-07-28T11:02:16.092Z,32.24
2018-07-28T11:03:17.092Z,31.37
2018-07-28T11:04:16.042Z,30.98
2018-07-28T11:05:16.056Z,30.00
2018-07-28T11:06:16.073Z,29.73
2018-07-28T11:07:16.082Z,29.81
2018-07-28T11:08:16.044Z,29.74
2018-07-28T11:09:16.112Z,29.67
2018-07-28T11:10:14.201Z,29.41
2018-07-28T11:11:17.057Z,28.91
2018-07-28T11:12:16.047Z,28.74
2018-07-28T11:13:16.053Z,28.57
2018-07-28T11:14:17.213Z,28.36
2018-07-28T11:15:16.094Z,28.03
2018-07-28T11:16:16.087Z,28.13
2018-07-28T11:17:16.134Z,28.17
2018-07-28T11:18:16.055Z,27.93
2018-07-28T11:19:16.052Z,27.74
2018-07-28T11:20:17.154Z,27.58
2018-07-28T11:21:16.061Z,27.62
2018-07-28T11:22:15.089Z,27.76
2018-07-28T11:23:18.588Z,27.88
2018-07-28T11:24:14.138Z,28.17
2018-07-28T11:26:35.960Z,29.41
2018-07-28T11:27:36.698Z,29.63
2018-07-28T11:28:37.715Z,29.52
2018-07-28T11:29:35.959Z,29.71
2018-07-28T11:30:37.064Z,29.48
2018-07-28T11:31:36.351Z,29.54
2018-07-28T11:32:34.745Z,29.37
2018-07-28T11:33:37.499Z,29.05
2018-07-28T11:34:36.444Z,28.91
2018-07-28T11:35:34.635Z,28.87
2018-07-28T11:36:36.440Z,29.05
2018-07-28T11:37:36.430Z,28.97
2018-07-28T11:38:36.400Z,28.89
2018-07-28T11:39:36.402Z,28.88
2018-07-28T11:40:36.612Z,28.91
2018-07-28T11:43:31.105Z,28.45
2018-07-28T11:44:31.819Z,28.32
2018-07-28T11:45:33.328Z,28.05
2018-07-28T11:46:31.645Z,28.14
2018-07-28T11:47:31.703Z,28.18
2018-07-28T11:48:31.704Z,28.03
2018-07-28T11:49:31.637Z,28.01
2018-07-28T11:50:31.707Z,27.93
2018-07-28T11:51:31.655Z,28.06
2018-07-28T11:52:31.984Z,28.33
2018-07-28T11:53:31.704Z,28.13
2018-07-28T11:54:31.653Z,28.11
2018-07-28T11:55:29.972Z,28.40
2018-07-28T11:56:34.874Z,28.77
2018-07-28T11:57:31.665Z,28.82
2018-07-28T11:58:31.948Z,28.52
2018-07-28T11:59:31.828Z,28.27
2018-07-28T12:00:31.696Z,28.17
2018-07-28T12:01:32.781Z,27.96
2018-07-28T12:02:32.687Z,27.74
2018-07-28T12:03:31.892Z,27.59
2018-07-28T12:04:41.654Z,27.35
2018-07-28T12:05:30.154Z,27.31
2018-07-28T12:06:29.964Z,27.40
2018-07-28T12:07:31.065Z,27.48
2018-07-28T12:08:29.696Z,27.50
2018-07-28T12:09:31.148Z,27.66
2018-07-28T12:10:34.830Z,27.81
2018-07-28T12:11:33.709Z,28.11
2018-07-28T12:12:33.144Z,28.17
2018-07-28T12:13:31.412Z,27.99
2018-07-28T12:14:31.430Z,27.99
2018-07-28T12:15:31.184Z,28.01
2018-07-28T12:16:29.643Z,28.05
2018-07-28T12:17:35.273Z,28.14
2018-07-28T12:18:31.215Z,27.99
2018-07-28T12:19:31.205Z,28.30
2018-07-28T12:20:29.651Z,28.14
2018-07-28T12:21:31.164Z,28.36
2018-07-28T12:22:33.003Z,28.48
2018-07-28T12:23:29.573Z,28.46
2018-07-28T12:24:32.378Z,28.45
2018-07-28T12:25:31.272Z,28.43
2018-07-28T12:26:31.195Z,28.38
2018-07-28T12:27:31.192Z,28.06
2018-07-28T12:28:31.333Z,28.05
2018-07-28T12:29:31.250Z,27.99
2018-07-28T12:30:31.218Z,27.81
2018-07-28T12:31:31.206Z,27.80
2018-07-28T12:32:31.164Z,27.77
2018-07-28T12:33:31.187Z,27.59
2018-07-28T12:34:31.323Z,27.45
2018-07-28T12:35:32.243Z,27.48
2018-07-28T12:36:29.346Z,27.38
2018-07-28T12:37:31.278Z,27.33
2018-07-28T12:38:31.187Z,27.21
2018-07-28T12:39:31.220Z,27.31
2018-07-28T12:40:31.215Z,27.23
2018-07-28T12:41:31.167Z,27.16
2018-07-28T12:42:31.184Z,27.20
2018-07-28T12:43:31.183Z,27.08
2018-07-28T12:44:32.435Z,27.06
2018-07-28T12:45:32.744Z,27.08
2018-07-28T12:46:31.506Z,27.24
2018-07-28T12:47:31.235Z,27.33
2018-07-28T12:48:31.362Z,27.39
2018-07-28T12:49:31.268Z,27.46
2018-07-28T12:50:31.423Z,27.40
2018-07-28T12:51:31.211Z,27.53
2018-07-28T12:52:30.393Z,27.61
2018-07-28T12:53:31.223Z,27.39
2018-07-28T12:54:30.735Z,27.50
2018-07-28T12:55:31.066Z,27.23
2018-07-28T12:56:31.707Z,27.20
2018-07-28T12:57:30.808Z,27.09
2018-07-28T12:58:31.907Z,27.06
2018-07-28T12:59:30.919Z,27.18
2018-07-28T13:00:30.702Z,27.12
2018-07-28T13:01:31.846Z,27.11
2018-07-28T13:02:30.747Z,27.11
2018-07-28T13:03:29.889Z,27.03
2018-07-28T13:04:30.814Z,26.97
2018-07-28T13:05:30.908Z,27.06
2018-07-28T13:06:30.749Z,26.90
2018-07-28T13:07:30.678Z,26.73
2018-07-28T13:08:29.042Z,26.76
2018-07-28T13:09:31.053Z,26.65
2018-07-28T13:10:30.687Z,26.46
2018-07-28T13:11:30.691Z,26.47
2018-07-28T13:12:30.769Z,26.42
2018-07-28T13:13:30.802Z,26.39
2018-07-28T13:14:30.697Z,26.28
2018-07-28T13:15:30.755Z,26.36
2018-07-28T13:16:30.731Z,26.35
2018-07-28T13:17:30.753Z,26.31
2018-07-28T13:18:30.780Z,26.28
2018-07-28T13:19:31.224Z,26.42
2018-07-28T13:20:31.180Z,26.38
2018-07-28T13:21:31.039Z,26.46
2018-07-28T13:22:31.662Z,26.61
2018-07-28T13:23:31.721Z,26.72
2018-07-28T13:24:31.666Z,26.91
2018-07-28T13:25:31.683Z,26.93
2018-07-28T13:26:30.866Z,26.83
2018-07-28T13:27:40.691Z,26.86
2018-07-28T13:28:30.681Z,26.86
2018-07-28T13:29:30.762Z,26.93
2018-07-28T13:30:30.669Z,26.93
2018-07-28T13:31:30.703Z,26.98
2018-07-28T13:32:30.675Z,27.06
2018-07-28T13:33:30.671Z,26.97
2018-07-28T13:34:30.676Z,27.01
2018-07-28T13:35:30.699Z,26.98
2018-07-28T13:36:31.734Z,27.02
2018-07-28T13:37:30.721Z,27.02
2018-07-28T13:38:28.753Z,27.12
2018-07-28T13:39:30.704Z,26.88
2018-07-28T13:40:30.181Z,26.78
2018-07-28T13:41:30.232Z,26.68
2018-07-28T13:42:31.229Z,26.68
2018-07-28T13:43:30.185Z,26.47
2018-07-28T13:44:30.176Z,26.42
2018-07-28T13:45:35.614Z,26.34
2018-07-28T13:46:30.169Z,26.31
2018-07-28T13:47:30.163Z,26.19
2018-07-28T13:48:28.713Z,26.34
2018-07-28T13:49:31.338Z,26.35
2018-07-28T13:50:30.269Z,26.32
2018-07-28T13:51:30.192Z,26.36
2018-07-28T13:52:30.290Z,26.31
2018-07-28T13:53:30.399Z,26.35
2018-07-28T13:54:30.223Z,26.34
2018-07-28T13:55:30.361Z,26.34
2018-07-28T13:56:30.679Z,26.51
2018-07-28T13:57:28.707Z,26.68
2018-07-28T13:58:28.986Z,26.68
2018-07-28T13:59:30.328Z,26.71
2018-07-28T14:00:30.208Z,26.68
2018-07-28T14:01:31.403Z,26.68
2018-07-28T14:02:30.186Z,26.68
2018-07-28T14:03:30.181Z,26.88
2018-07-28T14:04:30.303Z,26.87
2018-07-28T14:05:30.223Z,26.75
2018-07-28T14:06:30.182Z,26.47
2018-07-28T14:08:44.795Z,26.54
2018-07-28T14:09:46.582Z,26.46
2018-07-28T14:10:47.447Z,26.31
2018-07-28T14:11:46.742Z,26.36
2018-07-28T14:12:47.451Z,26.34
2018-07-28T14:13:46.283Z,26.42
2018-07-28T14:14:46.465Z,26.46
2018-07-28T14:15:46.354Z,26.50
2018-07-28T14:16:46.406Z,26.49
2018-07-28T14:17:46.374Z,26.49
2018-07-28T14:18:46.475Z,26.68
2018-07-28T14:19:51.344Z,26.72
2018-07-28T14:20:48.297Z,26.78
2018-07-28T14:22:33.312Z,26.83
2018-07-28T15:24:21.115Z,25.59
2018-07-28T15:25:26.001Z,25.57
2018-07-28T15:26:23.569Z,25.63
2018-07-28T15:27:22.887Z,25.57
2018-07-28T15:28:22.957Z,25.54
2018-07-28T15:29:21.912Z,25.59
2018-07-28T15:30:22.037Z,25.64
2018-07-28T15:31:21.951Z,25.66
2018-07-28T15:32:20.029Z,25.82
2018-07-28T15:33:25.996Z,25.93
2018-07-28T15:34:21.540Z,25.81
2018-07-28T15:35:23.461Z,25.97
2018-07-28T15:36:23.153Z,25.89
2018-07-28T15:37:19.947Z,25.94
2018-07-28T15:39:34.191Z,26.12
2018-07-28T15:40:34.531Z,26.13
2018-07-28T15:41:34.683Z,26.20
2018-07-28T15:42:35.383Z,26.17
2018-07-28T15:43:41.244Z,26.29
2018-07-28T15:44:34.100Z,26.42
2018-07-28T15:49:54.553Z,27.16
2018-07-28T15:50:56.619Z,27.02
2018-07-28T15:56:16.418Z,26.66
2018-07-28T16:05:10.644Z,26.72
2018-07-28T16:06:16.938Z,26.68
2018-07-28T16:07:11.333Z,26.53
2018-07-28T16:08:11.927Z,26.51
2018-07-28T16:09:11.867Z,26.56
2018-07-28T16:10:12.041Z,26.51
2018-07-28T16:11:11.927Z,26.47
2018-07-28T16:12:12.250Z,26.42
2018-07-28T17:07:07.008Z,25.94
2018-07-28T17:08:06.292Z,25.78
2018-07-28T17:09:06.244Z,25.94
2018-07-28T17:10:06.397Z,25.82
2018-07-28T17:11:06.015Z,25.94
2018-07-28T17:12:07.099Z,25.82
2018-07-28T17:13:06.127Z,25.86
2018-07-28T17:14:07.261Z,25.81
2018-07-28T17:15:06.641Z,25.90
2018-07-28T17:17:24.925Z,25.81
2018-07-28T17:18:26.609Z,25.86
2018-07-28T17:19:26.943Z,25.75
2018-07-28T17:20:25.552Z,25.66
2018-07-28T17:22:45.258Z,25.60
2018-07-28T17:23:48.178Z,25.64
2018-07-28T17:24:53.841Z,25.67
2018-07-28T17:25:45.330Z,25.67
2018-07-28T17:26:45.869Z,25.69
2018-07-28T17:27:46.873Z,25.75
2018-07-28T17:28:45.564Z,25.59
2018-07-28T17:29:45.517Z,25.61
2018-07-28T17:32:01.404Z,25.53
2018-07-28T17:33:03.040Z,25.59
2018-07-28T17:35:24.302Z,25.61
2018-07-28T17:36:23.592Z,25.54
2018-07-28T17:37:23.170Z,25.42
2018-07-28T17:38:23.499Z,25.41
2018-07-28T17:39:32.728Z,25.34
2018-07-28T17:40:23.799Z,25.16
2018-07-28T17:41:23.722Z,25.20
2018-07-28T17:42:23.579Z,25.17
2018-07-28T17:43:23.525Z,25.04
2018-07-28T17:44:23.591Z,25.07
2018-07-28T17:45:24.528Z,25.01
2018-07-28T17:46:24.519Z,25.02
2018-07-28T17:47:24.523Z,25.05
2018-07-28T17:48:24.510Z,24.92
2018-07-28T17:49:23.593Z,24.89
2018-07-28T17:50:24.516Z,24.90
2018-07-28T17:51:23.610Z,24.89
2018-07-28T17:52:22.452Z,24.87
2018-07-28T17:53:24.724Z,24.92
2018-07-28T17:54:23.612Z,24.82
2018-07-28T17:55:23.592Z,24.90
2018-07-28T17:56:23.575Z,24.94
2018-07-28T17:57:23.565Z,24.86
2018-07-28T17:58:23.612Z,24.71
2018-07-28T17:59:23.636Z,24.71
2018-07-28T18:00:23.543Z,24.66
2018-07-28T18:01:23.541Z,24.64
2018-07-28T18:02:23.562Z,24.67
2018-07-28T18:03:23.604Z,24.56
2018-07-28T18:04:23.580Z,24.55
2018-07-28T18:05:21.676Z,24.37
2018-07-28T18:06:23.610Z,24.53
2018-07-28T18:07:23.533Z,24.34
2018-07-28T18:08:24.683Z,24.24
2018-07-28T18:09:45.702Z,24.30
2018-07-28T18:10:23.847Z,24.29
2018-07-28T18:11:24.588Z,24.34
2018-07-28T18:12:28.464Z,24.27
2018-07-28T19:57:08.754Z,21.99
2018-07-28T19:58:09.696Z,22.05
2018-07-28T19:59:08.414Z,22.11
2018-07-28T20:00:09.565Z,22.12
2018-07-28T20:01:09.428Z,22.23
2018-07-28T20:02:10.402Z,22.19
2018-07-28T20:03:09.354Z,22.17
2018-07-28T20:04:09.525Z,22.12
2018-07-28T20:05:09.284Z,22.15
